createdAt,value
2023-05-19T00:01:01.821Z,94.87
2023-05-19T00:02:34.559Z,94.86
2023-05-19T00:04:07.522Z,94.81
2023-05-19T00:05:46.629Z,94.58
2023-05-19T00:07:22.401Z,94.57
2023-05-19T00:08:59.145Z,94.55
2023-05-19T00:10:33.760Z,94.39
2023-05-19T00:12:06.611Z,94.67
2023-05-19T00:13:38.878Z,94.74
2023-05-19T00:15:11.630Z,95.04
2023-05-19T00:16:44.185Z,95.06
2023-05-19T00:18:17.215Z,95.34
2023-05-19T00:19:49.559Z,95.52
2023-05-19T00:21:21.809Z,95.68
2023-05-19T00:22:54.057Z,95.82
2023-05-19T00:24:28.612Z,95.70
2023-05-19T00:26:00.838Z,95.89
2023-05-19T00:27:32.883Z,95.88
2023-05-19T00:29:05.458Z,95.56
2023-05-19T00:30:37.643Z,95.71
2023-05-19T00:32:10.611Z,95.55
2023-05-19T00:33:42.831Z,95.58
2023-05-19T00:35:17.971Z,95.21
2023-05-19T00:36:50.146Z,94.95
2023-05-19T00:38:22.475Z,95.06
2023-05-19T00:39:54.643Z,95.02
2023-05-19T00:41:27.102Z,95.08
2023-05-19T00:42:59.215Z,94.87
2023-05-19T00:44:31.411Z,95.11
2023-05-19T00:46:04.018Z,94.84
2023-05-19T00:47:36.312Z,95.21
2023-05-19T00:49:08.446Z,94.95
2023-05-19T00:50:40.970Z,94.91
2023-05-19T00:52:13.068Z,95.10
2023-05-19T00:53:49.583Z,95.15
2023-05-19T00:55:28.651Z,95.21
2023-05-19T00:57:01.333Z,95.06
2023-05-19T00:58:33.862Z,95.08
2023-05-19T01:00:07.368Z,95.19
2023-05-19T01:01:39.807Z,95.44
2023-05-19T01:03:12.186Z,95.59
2023-05-19T01:04:45.592Z,95.19
2023-05-19T01:06:19.554Z,95.21
2023-05-19T01:07:53.928Z,94.83
2023-05-19T01:09:26.082Z,94.85
2023-05-19T01:10:58.226Z,94.46
2023-05-19T01:12:30.961Z,94.54
2023-05-19T01:14:03.235Z,94.53
2023-05-19T01:16:07.301Z,94.06
2023-05-19T01:17:50.035Z,94.31
2023-05-19T01:19:34.073Z,94.30
2023-05-19T01:21:31.834Z,93.96
2023-05-19T01:23:32.819Z,94.33
2023-05-19T01:25:18.490Z,94.35
2023-05-19T01:27:02.423Z,94.41
2023-05-19T01:28:43.033Z,94.09
2023-05-19T01:30:25.969Z,94.29
2023-05-19T01:32:00.804Z,93.95
2023-05-19T01:33:33.341Z,94.40
2023-05-19T01:35:06.401Z,94.62
2023-05-19T01:36:39.377Z,94.67
2023-05-19T01:38:12.872Z,94.66
2023-05-19T01:39:45.140Z,94.36
2023-05-19T01:41:19.872Z,94.73
2023-05-19T01:42:57.324Z,94.49
2023-05-19T01:44:30.012Z,94.21
2023-05-19T01:46:03.375Z,94.13
2023-05-19T01:47:39.868Z,93.94
2023-05-19T01:49:12.260Z,94.00
2023-05-19T01:50:44.943Z,94.08
2023-05-19T01:52:19.326Z,94.00
2023-05-19T01:53:51.779Z,93.67
2023-05-19T01:55:24.266Z,93.73
2023-05-19T01:57:25.555Z,93.61
2023-05-19T01:59:04.910Z,93.49
2023-05-19T02:00:39.728Z,93.51
2023-05-19T02:02:29.228Z,93.47
2023-05-19T02:04:16.214Z,93.75
2023-05-19T02:06:03.133Z,93.76
2023-05-19T02:07:44.105Z,93.47
2023-05-19T02:09:19.465Z,93.54
2023-05-19T02:10:58.133Z,93.28
2023-05-19T02:12:38.149Z,93.68
2023-05-19T02:14:40.023Z,93.55
2023-05-19T02:16:14.317Z,93.89
2023-05-19T02:17:48.772Z,94.40
2023-05-19T02:19:33.086Z,94.29
2023-05-19T02:21:05.309Z,94.27
2023-05-19T02:22:37.598Z,94.00
2023-05-19T02:24:09.741Z,94.44
2023-05-19T02:25:41.942Z,94.84
2023-05-19T02:27:14.166Z,94.71
2023-05-19T02:28:46.321Z,94.63
2023-05-19T02:30:18.478Z,94.51
2023-05-19T02:31:50.981Z,94.76
2023-05-19T02:33:26.491Z,94.37
2023-05-19T02:34:58.771Z,94.13
2023-05-19T02:36:35.286Z,94.03
2023-05-19T02:38:07.415Z,94.22
2023-05-19T02:39:39.725Z,94.02
2023-05-19T02:41:11.864Z,94.13
2023-05-19T02:42:44.104Z,94.19
2023-05-19T02:44:16.406Z,93.95
2023-05-19T02:45:48.588Z,93.81
2023-05-19T02:47:20.733Z,93.89
2023-05-19T02:48:53.468Z,93.48
2023-05-19T02:50:25.629Z,93.23
2023-05-19T02:51:57.926Z,93.28
2023-05-19T02:53:31.172Z,93.37
2023-05-19T02:55:03.516Z,93.28
2023-05-19T02:56:35.685Z,93.72
2023-05-19T02:58:07.945Z,93.93
2023-05-19T02:59:40.113Z,94.08
2023-05-19T03:01:12.544Z,93.72
2023-05-19T03:02:44.891Z,93.71
2023-05-19T03:04:20.488Z,93.51
2023-05-19T03:05:54.068Z,93.57
2023-05-19T03:07:27.234Z,93.60
2023-05-19T03:08:59.608Z,93.58
2023-05-19T03:10:31.982Z,93.66
2023-05-19T03:12:05.062Z,94.19
2023-05-19T03:13:37.210Z,93.63
2023-05-19T03:15:09.784Z,93.78
2023-05-19T03:16:42.742Z,93.66
2023-05-19T03:18:15.032Z,93.78
2023-05-19T03:19:47.359Z,93.50
2023-05-19T03:21:19.533Z,93.74
2023-05-19T03:22:51.877Z,93.99
2023-05-19T03:24:24.022Z,93.53
2023-05-19T03:25:56.744Z,93.44
2023-05-19T03:27:29.625Z,93.82
2023-05-19T03:29:01.922Z,94.01
2023-05-19T03:30:34.301Z,94.18
2023-05-19T03:32:07.002Z,94.23
2023-05-19T03:33:39.229Z,94.25
2023-05-19T03:35:11.486Z,94.36
2023-05-19T03:36:45.506Z,94.42
2023-05-19T03:38:17.851Z,94.58
2023-05-19T03:39:50.072Z,94.50
2023-05-19T03:41:22.757Z,94.91
2023-05-19T03:42:55.038Z,94.69
2023-05-19T03:44:27.198Z,94.95
2023-05-19T03:45:59.482Z,95.31
2023-05-19T03:47:32.348Z,95.24
2023-05-19T03:49:04.609Z,95.35
2023-05-19T03:50:38.547Z,95.16
2023-05-19T03:52:13.355Z,95.24
2023-05-19T03:53:46.198Z,95.16
2023-05-19T03:55:20.629Z,95.22
2023-05-19T03:56:52.951Z,95.52
2023-05-19T03:58:25.334Z,95.64
2023-05-19T03:59:57.572Z,95.76
2023-05-19T04:01:29.826Z,95.70
2023-05-19T04:03:02.461Z,95.96
2023-05-19T04:04:34.789Z,96.10
2023-05-19T04:06:07.276Z,96.27
2023-05-19T04:07:39.488Z,96.27
2023-05-19T04:09:13.994Z,96.40
2023-05-19T04:10:46.306Z,96.52
2023-05-19T04:12:18.695Z,96.46
2023-05-19T04:13:51.012Z,96.59
2023-05-19T04:15:23.288Z,96.90
2023-05-19T04:16:56.068Z,97.23
2023-05-19T04:18:29.255Z,97.51
2023-05-19T04:20:01.615Z,97.73
2023-05-19T04:21:34.213Z,97.88
2023-05-19T04:23:06.486Z,97.96
2023-05-19T04:24:38.662Z,98.45
2023-05-19T04:26:10.871Z,98.70
2023-05-19T04:27:43.102Z,98.78
2023-05-19T04:29:18.704Z,98.70
2023-05-19T04:30:53.526Z,99.27
2023-05-19T04:32:26.195Z,99.33
2023-05-19T04:33:58.435Z,99.57
2023-05-19T04:35:30.673Z,99.69
2023-05-19T04:37:03.348Z,99.87
2023-05-19T04:38:37.274Z,99.98
2023-05-19T04:40:11.507Z,99.56
2023-05-19T04:41:45.253Z,99.77
2023-05-19T04:43:18.539Z,99.73
2023-05-19T04:44:52.207Z,99.72
2023-05-19T04:46:24.989Z,99.62
2023-05-19T04:47:58.489Z,99.42
2023-05-19T04:49:30.542Z,99.20
2023-05-19T04:51:02.809Z,99.36
2023-05-19T04:52:35.010Z,99.12
2023-05-19T04:54:07.987Z,98.76
2023-05-19T04:55:40.244Z,99.05
2023-05-19T04:57:12.473Z,99.22
2023-05-19T04:58:45.064Z,99.32
2023-05-19T05:00:17.958Z,99.54
2023-05-19T05:01:50.128Z,99.59
2023-05-19T05:03:23.442Z,99.56
2023-05-19T05:04:57.013Z,99.60
2023-05-19T05:06:29.086Z,98.99
2023-05-19T05:08:01.610Z,99.30
2023-05-19T05:09:33.748Z,99.29
2023-05-19T05:11:06.274Z,99.82
2023-05-19T05:12:38.743Z,99.89
2023-05-19T05:14:11.420Z,100.00
2023-05-19T05:15:43.939Z,99.76
2023-05-19T05:17:16.627Z,99.67
2023-05-19T05:18:49.110Z,99.44
2023-05-19T05:20:22.061Z,99.38
2023-05-19T05:21:54.698Z,98.93
2023-05-19T05:23:27.334Z,98.83
2023-05-19T05:24:59.814Z,99.20
2023-05-19T05:26:34.115Z,99.23
2023-05-19T05:28:06.615Z,99.05
2023-05-19T05:29:38.735Z,98.88
2023-05-19T05:31:10.978Z,98.53
2023-05-19T05:32:43.210Z,98.49
2023-05-19T05:34:15.589Z,98.25
2023-05-19T05:35:47.734Z,98.00
2023-05-19T05:37:19.956Z,98.03
2023-05-19T05:38:52.192Z,98.59
2023-05-19T05:40:24.485Z,98.65
2023-05-19T05:41:56.767Z,98.90
2023-05-19T05:43:29.527Z,98.96
2023-05-19T05:45:01.688Z,98.78
2023-05-19T05:46:34.025Z,98.88
2023-05-19T05:48:06.852Z,98.81
2023-05-19T05:49:40.715Z,98.40
2023-05-19T05:51:13.357Z,97.24
2023-05-19T05:52:47.674Z,94.87
2023-05-19T05:54:22.659Z,94.24
2023-05-19T05:55:55.124Z,93.08
2023-05-19T05:57:27.426Z,93.02
2023-05-19T05:58:59.983Z,93.24
2023-05-19T06:00:32.592Z,92.33
2023-05-19T06:02:07.509Z,91.69
2023-05-19T06:03:41.699Z,90.94
2023-05-19T06:05:14.460Z,87.89
2023-05-19T06:06:49.449Z,87.93
2023-05-19T06:08:21.569Z,87.07
2023-05-19T06:09:53.752Z,87.45
2023-05-19T06:11:26.692Z,87.92
2023-05-19T06:12:58.860Z,87.67
2023-05-19T06:14:31.081Z,86.54
2023-05-19T06:16:03.380Z,85.89
2023-05-19T06:17:38.432Z,84.12
2023-05-19T06:19:10.692Z,85.68
2023-05-19T06:20:42.919Z,84.75
2023-05-19T06:22:15.151Z,85.49
2023-05-19T06:23:47.272Z,84.09
2023-05-19T06:25:21.449Z,84.57
2023-05-19T06:26:53.704Z,84.19
2023-05-19T06:28:25.944Z,83.91
2023-05-19T06:29:58.177Z,83.59
2023-05-19T06:31:30.396Z,82.44
2023-05-19T06:33:04.111Z,82.74
2023-05-19T06:34:36.348Z,82.51
2023-05-19T06:36:10.454Z,81.08
2023-05-19T06:37:42.654Z,82.88
2023-05-19T06:39:14.843Z,82.51
2023-05-19T06:40:47.030Z,81.87
2023-05-19T06:42:22.801Z,82.03
2023-05-19T06:43:54.990Z,82.08
2023-05-19T06:45:27.255Z,82.15
2023-05-19T06:46:59.440Z,81.63
2023-05-19T06:48:31.692Z,79.73
2023-05-19T06:50:03.931Z,78.65
2023-05-19T06:51:36.365Z,79.34
2023-05-19T06:53:08.546Z,79.45
2023-05-19T06:54:40.875Z,78.04
2023-05-19T06:56:12.997Z,78.51
2023-05-19T06:57:45.253Z,79.46
2023-05-19T06:59:17.508Z,79.98
2023-05-19T07:00:49.696Z,78.18
2023-05-19T07:02:21.973Z,78.25
2023-05-19T07:03:54.210Z,78.77
2023-05-19T07:05:26.488Z,77.27
2023-05-19T07:06:59.100Z,77.38
2023-05-19T07:08:31.374Z,78.56
2023-05-19T07:10:03.634Z,78.63
2023-05-19T07:11:35.878Z,79.09
2023-05-19T07:13:08.054Z,78.92
2023-05-19T07:14:40.177Z,78.42
2023-05-19T07:16:12.390Z,76.13
2023-05-19T07:17:44.534Z,75.91
2023-05-19T07:19:16.952Z,76.58
2023-05-19T07:20:49.273Z,74.79
2023-05-19T07:22:21.618Z,76.74
2023-05-19T07:23:53.834Z,75.48
2023-05-19T07:25:27.638Z,75.01
2023-05-19T07:26:59.844Z,76.34
2023-05-19T07:28:32.091Z,76.13
2023-05-19T07:30:04.759Z,76.69
2023-05-19T07:31:37.045Z,77.56
2023-05-19T07:33:09.214Z,77.01
2023-05-19T07:34:41.466Z,74.91
2023-05-19T07:36:13.738Z,75.16
2023-05-19T07:37:45.950Z,75.07
2023-05-19T07:39:18.433Z,75.52
2023-05-19T07:40:50.736Z,74.77
2023-05-19T07:42:22.899Z,73.60
2023-05-19T07:43:55.071Z,73.62
2023-05-19T07:45:27.270Z,73.83
2023-05-19T07:46:59.670Z,72.91
2023-05-19T07:48:31.992Z,72.92
2023-05-19T07:50:05.177Z,72.63
2023-05-19T07:51:37.396Z,73.43
2023-05-19T07:53:09.519Z,73.69
2023-05-19T07:54:41.786Z,74.04
2023-05-19T07:56:14.668Z,73.27
2023-05-19T07:57:46.799Z,72.80
2023-05-19T07:59:20.006Z,73.20
2023-05-19T08:00:52.247Z,73.38
2023-05-19T08:02:24.454Z,71.87
2023-05-19T08:03:57.157Z,72.85
2023-05-19T08:05:30.294Z,73.07
2023-05-19T08:07:02.553Z,72.75
2023-05-19T08:08:35.259Z,73.10
2023-05-19T08:10:08.040Z,70.97
2023-05-19T08:11:40.331Z,71.27
2023-05-19T08:13:12.521Z,70.54
2023-05-19T08:14:44.690Z,70.35
2023-05-19T08:16:17.187Z,68.86
2023-05-19T08:17:49.402Z,72.02
2023-05-19T08:19:21.868Z,69.54
2023-05-19T08:20:54.169Z,71.41
2023-05-19T08:22:26.501Z,71.57
2023-05-19T08:23:58.688Z,71.17
2023-05-19T08:25:30.892Z,70.08
2023-05-19T08:27:05.262Z,68.54
2023-05-19T08:28:37.717Z,67.81
2023-05-19T08:30:10.449Z,68.07
2023-05-19T08:31:42.689Z,68.06
2023-05-19T08:33:15.007Z,67.82
2023-05-19T08:34:47.324Z,66.31
2023-05-19T08:36:19.793Z,66.94
2023-05-19T08:37:51.979Z,67.05
2023-05-19T08:39:27.264Z,66.22
2023-05-19T08:40:59.501Z,66.65
2023-05-19T08:42:33.375Z,67.46
2023-05-19T08:44:05.809Z,66.78
2023-05-19T08:45:39.261Z,66.33
2023-05-19T08:47:14.744Z,66.34
2023-05-19T08:48:48.681Z,66.28
2023-05-19T08:50:25.320Z,66.80
2023-05-19T08:52:18.022Z,66.85
2023-05-19T08:53:52.241Z,66.28
2023-05-19T08:55:53.715Z,65.08
2023-05-19T08:57:26.285Z,65.38
2023-05-19T08:59:00.870Z,66.42
2023-05-19T09:00:33.664Z,65.65
2023-05-19T09:02:07.251Z,64.70
2023-05-19T09:03:39.748Z,65.42
2023-05-19T09:05:12.249Z,66.31
2023-05-19T09:06:45.593Z,65.78
2023-05-19T09:08:17.637Z,62.83
2023-05-19T09:09:49.876Z,64.05
2023-05-19T09:11:23.070Z,64.19
2023-05-19T09:12:55.213Z,60.89
2023-05-19T09:14:27.367Z,61.65
2023-05-19T09:16:00.440Z,64.70
2023-05-19T09:17:33.182Z,65.71
2023-05-19T09:19:05.499Z,65.25
2023-05-19T09:20:42.369Z,64.58
2023-05-19T09:22:16.259Z,62.75
2023-05-19T09:23:50.143Z,65.18
2023-05-19T09:25:25.933Z,66.85
2023-05-19T09:27:00.292Z,65.51
2023-05-19T09:28:33.709Z,65.67
2023-05-19T09:30:09.796Z,63.56
2023-05-19T09:31:52.696Z,63.96
2023-05-19T09:33:24.922Z,64.63
2023-05-19T09:34:57.516Z,64.70
2023-05-19T09:36:31.416Z,64.13
2023-05-19T09:38:06.007Z,64.36
2023-05-19T09:39:39.310Z,64.14
2023-05-19T09:41:13.971Z,63.61
2023-05-19T09:42:46.434Z,63.89
2023-05-19T09:44:21.607Z,63.08
2023-05-19T09:46:20.086Z,64.09
2023-05-19T09:47:52.324Z,64.09
2023-05-19T09:49:33.165Z,63.31
2023-05-19T09:51:08.277Z,63.12
2023-05-19T09:52:44.128Z,62.67
2023-05-19T09:54:16.870Z,61.64
2023-05-19T09:55:50.328Z,63.70
2023-05-19T09:57:28.719Z,64.42
2023-05-19T14:08:22.640Z,52.26
2023-05-19T14:09:55.758Z,52.33
2023-05-19T14:11:27.868Z,52.82
2023-05-19T14:14:35.526Z,55.17
2023-05-19T14:16:11.214Z,53.84
2023-05-19T14:17:43.433Z,54.84
2023-05-19T14:19:15.827Z,55.15
2023-05-19T14:20:48.077Z,55.54
2023-05-19T14:22:20.176Z,55.65
2023-05-19T14:23:52.323Z,54.80
2023-05-19T14:25:24.444Z,56.19
2023-05-19T14:26:56.750Z,55.66
2023-05-19T14:28:28.914Z,56.20
2023-05-19T14:30:01.140Z,56.50
2023-05-19T14:31:33.731Z,56.43
2023-05-19T14:33:06.177Z,57.47
2023-05-19T14:34:38.561Z,57.94
2023-05-19T14:36:11.070Z,57.36
2023-05-19T14:37:43.373Z,56.94
2023-05-19T14:39:15.760Z,59.56
2023-05-19T14:40:48.862Z,60.10
2023-05-19T14:42:20.953Z,59.32
2023-05-19T14:43:55.724Z,59.96
2023-05-19T14:45:27.965Z,59.47
2023-05-19T14:47:01.695Z,60.07
2023-05-19T14:48:33.788Z,60.30
2023-05-19T14:50:06.433Z,60.15
2023-05-19T14:51:38.618Z,60.57
2023-05-19T14:54:43.582Z,60.27
2023-05-19T14:56:15.847Z,60.32
2023-05-19T14:57:47.982Z,60.58
2023-05-19T14:59:20.210Z,60.46
2023-05-19T15:00:52.367Z,60.70
2023-05-19T15:02:24.522Z,60.09
2023-05-19T15:03:56.729Z,59.24
2023-05-19T15:05:28.929Z,58.63
2023-05-19T15:08:38.214Z,58.68
2023-05-19T15:10:10.765Z,58.44
2023-05-19T15:11:42.931Z,58.40
2023-05-19T15:13:15.071Z,58.36
2023-05-19T15:14:47.278Z,60.72
2023-05-19T15:16:19.402Z,61.62
2023-05-19T15:17:51.697Z,62.20
2023-05-19T15:19:23.910Z,63.93
2023-05-19T15:20:56.137Z,65.88
2023-05-19T15:22:28.412Z,66.46
2023-05-19T15:24:00.482Z,64.02
2023-05-19T15:25:32.594Z,63.74
2023-05-19T15:27:04.775Z,63.72
2023-05-19T15:28:36.962Z,63.64
2023-05-19T15:30:09.410Z,64.06
2023-05-19T15:31:41.752Z,63.76
2023-05-19T15:33:14.230Z,64.17
2023-05-19T15:34:46.428Z,66.01
2023-05-19T15:36:18.534Z,66.45
2023-05-19T15:37:50.693Z,65.37
2023-05-19T15:39:22.780Z,65.91
2023-05-19T15:40:54.922Z,67.56
2023-05-19T15:42:27.020Z,68.39
2023-05-19T15:44:02.918Z,68.15
2023-05-19T15:45:35.058Z,69.05
2023-05-19T15:47:07.378Z,69.24
2023-05-19T15:48:39.822Z,69.47
2023-05-19T15:50:12.073Z,69.37
2023-05-19T15:51:44.885Z,68.78
2023-05-19T15:53:17.208Z,68.97
2023-05-19T15:54:49.410Z,69.66
2023-05-19T15:56:22.051Z,69.74
2023-05-19T15:57:54.147Z,70.10
2023-05-19T15:59:26.330Z,70.64
2023-05-19T16:00:58.401Z,67.95
2023-05-19T16:02:30.586Z,66.75
2023-05-19T16:04:04.177Z,67.21
2023-05-19T16:05:36.352Z,67.38
2023-05-19T16:07:08.611Z,67.10
2023-05-19T16:08:40.879Z,66.96
2023-05-19T16:10:13.131Z,66.67
2023-05-19T16:11:45.233Z,65.92
2023-05-19T16:13:17.351Z,65.49
2023-05-19T16:14:49.444Z,65.70
2023-05-19T16:16:21.682Z,66.20
2023-05-19T16:17:55.424Z,66.69
2023-05-19T16:19:30.102Z,66.85
2023-05-19T16:21:02.249Z,67.30
2023-05-19T16:22:34.423Z,66.87
2023-05-19T16:24:06.685Z,65.43
2023-05-19T16:27:18.257Z,61.64
2023-05-19T16:28:50.359Z,61.91
2023-05-19T16:30:23.506Z,62.74
2023-05-19T16:31:55.696Z,61.36
2023-05-19T16:33:28.767Z,60.24
2023-05-19T16:35:01.056Z,59.43
2023-05-19T16:36:33.204Z,60.52
2023-05-19T16:38:05.275Z,59.86
2023-05-19T16:39:37.798Z,60.56
2023-05-19T16:41:12.888Z,58.67
2023-05-19T16:42:45.092Z,58.72
2023-05-19T16:44:18.720Z,57.03
2023-05-19T16:45:50.990Z,57.37
2023-05-19T16:47:23.106Z,56.95
2023-05-19T16:48:55.244Z,57.95
2023-05-19T16:50:27.386Z,56.34
2023-05-19T16:51:59.666Z,56.27
2023-05-19T16:53:32.249Z,56.31
2023-05-19T16:55:04.827Z,58.36
2023-05-19T16:56:37.163Z,58.69
2023-05-19T16:58:11.036Z,59.40
2023-05-19T16:59:43.392Z,58.54
2023-05-19T17:01:15.961Z,58.75
2023-05-19T17:02:48.223Z,59.96
2023-05-19T17:04:22.830Z,58.36
2023-05-19T17:05:55.051Z,59.49
2023-05-19T17:07:29.428Z,58.88
2023-05-19T17:09:02.346Z,60.14
2023-05-19T17:10:34.636Z,59.96
2023-05-19T17:12:07.432Z,60.22
2023-05-19T17:13:40.121Z,60.71
2023-05-19T17:15:12.435Z,61.59
2023-05-19T17:16:44.677Z,60.96
2023-05-19T17:18:16.870Z,60.86
2023-05-19T17:19:49.053Z,61.15
2023-05-19T17:21:21.898Z,62.26
2023-05-19T17:22:54.157Z,62.28
2023-05-19T17:24:26.545Z,61.90
2023-05-19T17:25:58.914Z,62.05
2023-05-19T17:27:31.064Z,61.71
2023-05-19T17:29:03.225Z,62.49
2023-05-19T17:30:35.611Z,62.44
2023-05-19T17:32:08.256Z,62.63
2023-05-19T17:33:40.826Z,62.24
2023-05-19T17:35:13.118Z,62.29
2023-05-19T17:36:45.206Z,62.05
2023-05-19T17:38:17.438Z,62.25
2023-05-19T17:39:50.157Z,62.51
2023-05-19T17:41:22.448Z,63.56
2023-05-19T17:42:54.615Z,63.96
2023-05-19T17:44:26.698Z,64.07
2023-05-19T17:46:00.292Z,63.77
2023-05-19T17:47:33.769Z,63.99
2023-05-19T17:49:06.729Z,63.48
2023-05-19T17:50:38.912Z,63.67
2023-05-19T17:52:11.413Z,64.07
2023-05-19T17:53:43.803Z,64.45
2023-05-19T17:55:16.731Z,65.71
2023-05-19T17:56:50.178Z,68.45
2023-05-19T17:58:22.533Z,69.88
2023-05-19T17:59:54.851Z,71.30
2023-05-19T18:01:27.315Z,71.87
2023-05-19T18:03:00.306Z,72.43
2023-05-19T18:04:32.848Z,72.00
2023-05-19T18:06:05.891Z,72.41
2023-05-19T18:07:39.933Z,71.85
2023-05-19T18:09:14.495Z,71.57
2023-05-19T18:10:48.911Z,70.96
2023-05-19T18:12:21.684Z,70.21
2023-05-19T18:13:53.889Z,69.39
2023-05-19T18:15:26.268Z,69.22
2023-05-19T18:16:58.386Z,69.31
2023-05-19T18:18:30.606Z,69.29
2023-05-19T18:20:03.021Z,68.77
2023-05-19T18:21:35.252Z,69.59
2023-05-19T18:23:07.622Z,69.35
2023-05-19T18:24:39.741Z,69.58
2023-05-19T18:26:15.506Z,70.97
2023-05-19T18:27:48.117Z,71.00
2023-05-19T18:29:20.302Z,71.32
2023-05-19T18:31:02.700Z,70.69
2023-05-19T18:32:34.924Z,71.68
2023-05-19T18:34:07.217Z,71.60
2023-05-19T18:35:39.333Z,72.56
2023-05-19T18:37:11.398Z,72.64
2023-05-19T18:38:43.558Z,74.30
2023-05-19T18:40:15.680Z,75.79
2023-05-19T18:41:47.896Z,77.93
2023-05-19T18:43:20.099Z,79.41
2023-05-19T18:44:52.316Z,80.17
2023-05-19T18:46:24.492Z,80.96
2023-05-19T18:47:56.740Z,82.02
2023-05-19T18:49:28.923Z,82.68
2023-05-19T18:51:01.658Z,83.32
2023-05-19T18:52:33.839Z,83.62
2023-05-19T18:54:06.078Z,83.12
2023-05-19T18:55:38.671Z,83.33
2023-05-19T18:57:11.022Z,83.15
2023-05-19T18:58:43.129Z,83.02
2023-05-19T19:00:15.757Z,82.82
2023-05-19T19:01:47.980Z,82.55
2023-05-19T19:03:20.372Z,82.57
2023-05-19T19:04:52.670Z,83.25
2023-05-19T19:06:24.952Z,84.08
2023-05-19T19:07:57.915Z,84.61
2023-05-19T19:09:30.273Z,85.68
2023-05-19T19:11:02.455Z,85.49
2023-05-19T19:12:35.170Z,85.67
2023-05-19T19:14:07.774Z,86.03
2023-05-19T19:15:40.283Z,86.42
2023-05-19T19:17:12.407Z,86.84
2023-05-19T19:18:44.881Z,87.15
2023-05-19T19:20:17.143Z,87.27
2023-05-19T19:21:49.380Z,87.15
2023-05-19T19:23:21.487Z,87.09
2023-05-19T19:24:53.591Z,87.26
2023-05-19T19:26:29.456Z,87.11
2023-05-19T19:28:02.078Z,87.56
2023-05-19T19:29:34.213Z,87.32
2023-05-19T19:31:06.348Z,87.19
2023-05-19T19:32:38.542Z,86.65
2023-05-19T19:34:11.715Z,86.24
2023-05-19T19:35:47.380Z,86.05
2023-05-19T19:37:19.752Z,85.78
2023-05-19T19:38:51.879Z,85.69
2023-05-19T19:40:25.298Z,85.31
2023-05-19T19:41:57.308Z,84.95
2023-05-19T19:43:29.507Z,84.69
2023-05-19T19:45:01.737Z,84.05
2023-05-19T19:46:33.953Z,83.93
2023-05-19T19:48:07.562Z,83.68
2023-05-19T19:49:39.762Z,84.55
2023-05-19T19:51:12.047Z,84.99
2023-05-19T19:52:44.182Z,85.93
2023-05-19T19:54:16.513Z,86.22
2023-05-19T19:56:01.473Z,86.52
2023-05-19T19:57:34.604Z,86.70
2023-05-19T19:59:06.703Z,86.52
2023-05-19T20:00:41.875Z,86.54
2023-05-19T20:02:14.472Z,86.45
2023-05-19T20:03:46.891Z,86.18
2023-05-19T20:05:19.439Z,86.34
2023-05-19T20:06:51.624Z,86.57
2023-05-19T20:08:24.915Z,86.86
2023-05-19T20:09:58.377Z,87.30
2023-05-19T20:11:30.605Z,87.58
2023-05-19T20:13:03.457Z,87.89
2023-05-19T20:14:35.558Z,87.99
2023-05-19T20:16:07.892Z,88.47
2023-05-19T20:17:40.066Z,88.66
2023-05-19T20:19:12.341Z,88.91
2023-05-19T20:20:44.641Z,88.96
2023-05-19T20:22:16.853Z,88.75
2023-05-19T20:23:50.884Z,88.52
2023-05-19T20:25:23.030Z,88.27
2023-05-19T20:26:55.187Z,87.95
2023-05-19T20:28:27.371Z,87.84
2023-05-19T20:29:59.646Z,87.92
2023-05-19T20:31:31.800Z,88.30
2023-05-19T20:33:04.570Z,88.84
2023-05-19T20:34:36.905Z,89.29
2023-05-19T20:36:09.168Z,89.66
2023-05-19T20:37:41.425Z,89.77
2023-05-19T20:39:13.597Z,90.09
2023-05-19T20:40:45.797Z,90.43
2023-05-19T20:42:17.998Z,90.62
2023-05-19T20:43:50.226Z,90.98
2023-05-19T20:45:22.512Z,91.30
2023-05-19T20:46:55.307Z,91.10
2023-05-19T20:48:27.856Z,91.20
2023-05-19T20:50:00.055Z,91.51
2023-05-19T20:51:33.190Z,91.71
2023-05-19T20:53:05.393Z,91.80
2023-05-19T20:54:37.534Z,91.94
2023-05-19T20:56:10.984Z,92.03
2023-05-19T20:57:44.977Z,92.08
2023-05-19T20:59:17.189Z,92.18
2023-05-19T21:00:53.906Z,92.12
2023-05-19T21:02:26.074Z,92.22
2023-05-19T21:03:58.578Z,92.42
2023-05-19T21:05:31.019Z,92.35
2023-05-19T21:07:03.378Z,92.37
2023-05-19T21:08:35.569Z,92.56
2023-05-19T21:10:08.648Z,92.60
2023-05-19T21:11:40.808Z,92.70
2023-05-19T21:13:12.925Z,92.58
2023-05-19T21:14:45.204Z,92.26
2023-05-19T21:16:17.484Z,92.12
2023-05-19T21:17:49.575Z,92.09
2023-05-19T21:19:22.330Z,92.14
2023-05-19T21:20:54.555Z,92.32
2023-05-19T21:22:27.545Z,92.00
2023-05-19T21:24:00.439Z,92.32
2023-05-19T21:25:32.518Z,92.41
2023-05-19T21:27:04.954Z,92.48
2023-05-19T21:28:37.207Z,92.43
2023-05-19T21:30:10.167Z,92.54
2023-05-19T21:31:42.356Z,92.56
2023-05-19T21:33:14.792Z,92.75
2023-05-19T21:34:47.042Z,92.71
2023-05-19T21:36:19.184Z,92.82
2023-05-19T21:37:51.335Z,92.85
2023-05-19T21:39:23.551Z,92.78
2023-05-19T21:40:55.701Z,92.83
2023-05-19T21:42:27.758Z,92.84
2023-05-19T21:44:00.091Z,92.55
2023-05-19T21:45:32.284Z,92.54
2023-05-19T21:47:04.471Z,92.42
2023-05-19T21:48:36.614Z,92.59
2023-05-19T21:50:09.280Z,92.26
2023-05-19T21:51:41.473Z,92.25
2023-05-19T21:53:13.622Z,92.33
2023-05-19T21:54:46.189Z,92.41
2023-05-19T21:56:18.293Z,92.60
2023-05-19T21:57:50.604Z,92.65
2023-05-19T21:59:25.192Z,92.77
2023-05-19T22:00:57.322Z,92.84
2023-05-19T22:02:32.683Z,92.92
2023-05-19T22:04:05.708Z,93.14
2023-05-19T22:05:38.650Z,92.84
2023-05-19T22:07:10.905Z,92.87
2023-05-19T22:08:43.097Z,92.86
2023-05-19T22:10:15.316Z,92.46
2023-05-19T22:11:47.539Z,92.19
2023-05-19T22:14:56.511Z,92.11
2023-05-19T22:16:28.843Z,91.97
2023-05-19T22:18:01.611Z,92.11
2023-05-19T22:19:33.964Z,92.22
2023-05-19T22:21:06.234Z,92.39
2023-05-19T22:22:38.349Z,92.66
2023-05-19T22:24:10.523Z,92.60
2023-05-19T22:25:42.810Z,92.51
2023-05-19T22:27:15.082Z,92.61
2023-05-19T22:28:47.278Z,92.76
2023-05-19T22:30:19.410Z,92.68
2023-05-19T22:31:51.723Z,92.33
2023-05-19T22:33:23.927Z,92.06
2023-05-19T22:34:56.438Z,91.74
2023-05-19T22:36:28.842Z,91.51
2023-05-19T22:38:03.966Z,91.51
2023-05-19T22:39:36.120Z,91.67
2023-05-19T22:41:08.261Z,91.79
2023-05-19T22:44:24.685Z,91.83
2023-05-19T22:45:56.891Z,91.88
2023-05-19T22:47:30.117Z,91.98
2023-05-19T22:49:02.291Z,92.17
2023-05-19T22:50:34.544Z,92.03
2023-05-19T22:52:07.094Z,91.90
2023-05-19T22:53:39.350Z,92.04
2023-05-19T22:55:11.431Z,92.21
2023-05-19T22:56:48.965Z,92.13
2023-05-19T22:58:21.293Z,91.62
2023-05-19T22:59:53.502Z,91.50
2023-05-19T23:01:25.631Z,91.64
2023-05-19T23:02:58.726Z,91.90
2023-05-19T23:04:31.132Z,91.91
2023-05-19T23:06:03.225Z,91.82
2023-05-19T23:07:35.541Z,91.92
2023-05-19T23:09:07.655Z,91.91
2023-05-19T23:10:39.792Z,91.96
2023-05-19T23:12:11.969Z,92.21
2023-05-19T23:13:44.028Z,92.32
2023-05-19T23:15:16.161Z,92.26
2023-05-19T23:16:50.699Z,91.91
2023-05-19T23:18:23.001Z,92.03
2023-05-19T23:19:55.168Z,91.43
2023-05-19T23:21:27.253Z,91.36
2023-05-19T23:23:02.363Z,91.20
2023-05-19T23:24:34.567Z,91.30
2023-05-19T23:26:07.025Z,91.36
2023-05-19T23:27:39.171Z,91.69
2023-05-19T23:29:13.385Z,91.53
2023-05-19T23:30:45.788Z,91.87
2023-05-19T23:32:17.948Z,92.00
2023-05-19T23:33:50.181Z,92.15
2023-05-19T23:35:22.691Z,91.96
2023-05-19T23:36:54.795Z,92.39
2023-05-19T23:38:28.146Z,92.34
2023-05-19T23:40:00.118Z,91.84
2023-05-19T23:41:32.339Z,91.63
2023-05-19T23:43:04.608Z,91.24
2023-05-19T23:44:36.853Z,91.17
2023-05-19T23:46:09.165Z,91.50
2023-05-19T23:49:15.075Z,91.94
2023-05-19T23:50:47.289Z,91.88
2023-05-19T23:52:19.474Z,91.88
2023-05-19T23:53:51.676Z,91.80
2023-05-19T23:55:23.899Z,91.60
2023-05-19T23:56:56.172Z,91.65
2023-05-19T23:58:28.315Z,91.52
